createdAt,value
2023-03-30T00:00:45.491Z,1253.00
2023-03-30T00:01:45.532Z,1251.00
2023-03-30T00:02:45.658Z,1252.00
2023-03-30T00:03:45.906Z,1248.00
2023-03-30T00:04:45.668Z,1247.00
2023-03-30T00:05:45.631Z,1249.00
2023-03-30T00:06:45.662Z,1251.00
2023-03-30T00:07:44.695Z,1252.00
2023-03-30T00:08:45.757Z,1253.00
2023-03-30T00:09:45.768Z,1255.00
2023-03-30T00:10:45.811Z,1257.00
2023-03-30T00:11:45.830Z,1255.00
2023-03-30T00:12:45.840Z,1253.00
2023-03-30T00:13:45.918Z,1256.00
2023-03-30T00:14:45.899Z,1256.00
2023-03-30T00:15:45.953Z,1254.00
2023-03-30T00:16:44.953Z,1252.00
2023-03-30T00:17:46.101Z,1250.00
2023-03-30T00:18:45.978Z,1246.00
2023-03-30T00:19:46.079Z,1244.00
2023-03-30T00:20:46.061Z,1244.00
2023-03-30T00:21:46.066Z,1244.00
2023-03-30T00:22:46.110Z,1244.00
2023-03-30T00:23:46.127Z,1248.00
2023-03-30T00:24:45.167Z,1245.00
2023-03-30T00:25:45.163Z,1244.00
2023-03-30T00:26:46.203Z,1243.00
2023-03-30T00:27:46.225Z,1244.00
2023-03-30T00:28:46.255Z,1242.00
2023-03-30T00:29:45.298Z,1239.00
2023-03-30T00:30:45.306Z,1238.00
2023-03-30T00:31:46.432Z,1235.00
2023-03-30T00:32:46.405Z,1234.00
2023-03-30T00:33:47.015Z,1234.00
2023-03-30T00:34:46.414Z,1232.00
2023-03-30T00:35:46.504Z,1234.00
2023-03-30T00:36:46.472Z,1235.00
2023-03-30T00:37:46.498Z,1237.00
2023-03-30T00:38:45.793Z,1239.00
2023-03-30T00:39:45.572Z,1241.00
2023-03-30T00:40:46.595Z,1240.00
2023-03-30T00:41:45.607Z,1238.00
2023-03-30T00:42:45.629Z,1241.00
2023-03-30T00:43:46.651Z,1239.00
2023-03-30T00:44:46.682Z,1233.00
2023-03-30T00:45:46.780Z,1229.00
2023-03-30T00:46:46.763Z,1229.00
2023-03-30T00:47:46.812Z,1231.00
2023-03-30T00:48:46.807Z,1233.00
2023-03-30T00:49:45.830Z,1234.00
2023-03-30T00:50:46.888Z,1234.00
2023-03-30T00:51:46.888Z,1234.00
2023-03-30T00:52:46.957Z,1234.00
2023-03-30T00:53:46.960Z,1233.00
2023-03-30T00:54:47.006Z,1233.00
2023-03-30T00:55:46.007Z,1229.00
2023-03-30T00:56:47.129Z,1228.00
2023-03-30T00:57:47.081Z,1227.00
2023-03-30T00:58:47.138Z,1228.00
2023-03-30T00:59:46.165Z,1228.00
2023-03-30T01:00:46.201Z,1228.00
2023-03-30T01:01:46.316Z,1227.00
2023-03-30T01:02:47.304Z,1228.00
2023-03-30T01:03:47.466Z,1229.00
2023-03-30T01:04:47.321Z,1230.00
2023-03-30T01:05:47.333Z,1229.00
2023-03-30T01:06:46.391Z,1227.00
2023-03-30T01:07:46.451Z,1223.00
2023-03-30T01:08:46.445Z,1222.00
2023-03-30T01:09:46.494Z,1222.00
2023-03-30T01:10:47.525Z,1221.00
2023-03-30T01:11:47.545Z,1219.00
2023-03-30T01:12:47.579Z,1222.00
2023-03-30T01:13:47.620Z,1221.00
2023-03-30T01:14:47.647Z,1220.00
2023-03-30T01:15:46.730Z,1220.00
2023-03-30T01:16:47.716Z,1222.00
2023-03-30T01:17:47.814Z,1224.00
2023-03-30T01:18:47.772Z,1224.00
2023-03-30T01:19:47.819Z,1223.00
2023-03-30T01:20:47.871Z,1223.00
2023-03-30T01:21:47.900Z,1225.00
2023-03-30T01:22:47.948Z,1224.00
2023-03-30T01:23:47.978Z,1224.00
2023-03-30T01:24:48.008Z,1222.00
2023-03-30T01:25:48.022Z,1220.00
2023-03-30T01:26:48.053Z,1222.00
2023-03-30T01:27:48.094Z,1220.00
2023-03-30T01:28:48.200Z,1218.00
2023-03-30T01:29:47.165Z,1220.00
2023-03-30T01:30:48.213Z,1220.00
2023-03-30T01:31:48.289Z,1218.00
2023-03-30T01:32:48.329Z,1218.00
2023-03-30T01:33:48.325Z,1218.00
2023-03-30T01:34:48.338Z,1216.00
2023-03-30T01:35:47.533Z,1213.00
2023-03-30T01:36:48.408Z,1213.00
2023-03-30T01:37:47.449Z,1212.00
2023-03-30T01:38:48.483Z,1211.00
2023-03-30T01:39:48.505Z,1209.00
2023-03-30T01:40:47.529Z,1209.00
2023-03-30T01:41:48.585Z,1207.00
2023-03-30T01:42:48.623Z,1209.00
2023-03-30T01:43:48.675Z,1211.00
2023-03-30T01:44:48.693Z,1210.00
2023-03-30T01:45:48.722Z,1205.00
2023-03-30T01:46:48.789Z,1206.00
2023-03-30T01:47:48.835Z,1206.00
2023-03-30T01:48:48.844Z,1208.00
2023-03-30T01:49:48.998Z,1208.00
2023-03-30T01:50:47.915Z,1207.00
2023-03-30T01:51:48.955Z,1208.00
2023-03-30T01:52:50.430Z,1208.00
2023-03-30T01:53:49.053Z,1208.00
2023-03-30T01:54:49.076Z,1206.00
2023-03-30T01:55:49.094Z,1206.00
2023-03-30T01:56:48.193Z,1205.00
2023-03-30T01:57:49.171Z,1206.00
2023-03-30T01:58:49.192Z,1205.00
2023-03-30T01:59:49.253Z,1204.00
2023-03-30T02:00:48.282Z,1203.00
2023-03-30T02:01:49.343Z,1201.00
2023-03-30T02:02:49.420Z,1199.00
2023-03-30T02:03:49.591Z,1197.00
2023-03-30T02:04:49.443Z,1197.00
2023-03-30T02:05:49.515Z,1197.00
2023-03-30T02:06:48.521Z,1195.00
2023-03-30T02:07:49.547Z,1193.00
2023-03-30T02:08:49.619Z,1191.00
2023-03-30T02:09:49.628Z,1188.00
2023-03-30T02:10:48.656Z,1191.00
2023-03-30T02:11:48.697Z,1194.00
2023-03-30T02:12:49.729Z,1192.00
2023-03-30T02:13:49.776Z,1193.00
2023-03-30T02:14:49.800Z,1193.00
2023-03-30T02:15:49.811Z,1192.00
2023-03-30T02:16:49.877Z,1191.00
2023-03-30T02:17:49.955Z,1190.00
2023-03-30T02:18:49.946Z,1191.00
2023-03-30T02:19:50.004Z,1189.00
2023-03-30T02:20:50.061Z,1192.00
2023-03-30T02:21:50.108Z,1193.00
2023-03-30T02:22:50.159Z,1193.00
2023-03-30T02:23:50.182Z,1194.00
2023-03-30T02:24:50.236Z,1196.00
2023-03-30T02:25:50.279Z,1194.00
2023-03-30T02:26:50.333Z,1197.00
2023-03-30T02:27:49.376Z,1194.00
2023-03-30T02:28:50.419Z,1193.00
2023-03-30T02:29:50.502Z,1192.00
2023-03-30T02:30:49.528Z,1190.00
2023-03-30T02:31:50.585Z,1189.00
2023-03-30T02:32:49.667Z,1190.00
2023-03-30T02:33:50.676Z,1188.00
2023-03-30T02:34:50.740Z,1190.00
2023-03-30T02:35:50.823Z,1191.00
2023-03-30T02:36:50.864Z,1195.00
2023-03-30T02:37:49.952Z,1196.00
2023-03-30T02:38:50.970Z,1196.00
2023-03-30T02:39:51.050Z,1196.00
2023-03-30T02:40:51.080Z,1195.00
2023-03-30T02:41:51.137Z,1195.00
2023-03-30T02:42:50.178Z,1190.00
2023-03-30T02:43:51.258Z,1188.00
2023-03-30T02:44:51.301Z,1188.00
2023-03-30T02:45:50.404Z,1189.00
2023-03-30T02:46:51.397Z,1185.00
2023-03-30T02:47:51.448Z,1186.00
2023-03-30T02:48:51.466Z,1182.00
2023-03-30T02:49:51.514Z,1184.00
2023-03-30T02:50:51.566Z,1181.00
2023-03-30T02:51:51.602Z,1179.00
2023-03-30T02:52:51.641Z,1175.00
2023-03-30T02:53:50.719Z,1176.00
2023-03-30T02:54:51.727Z,1179.00
2023-03-30T02:55:51.767Z,1179.00
2023-03-30T02:56:51.852Z,1177.00
2023-03-30T02:57:51.840Z,1179.00
2023-03-30T02:58:51.884Z,1185.00
2023-03-30T02:59:51.937Z,1185.00
2023-03-30T03:00:51.965Z,1184.00
2023-03-30T03:01:52.030Z,1185.00
2023-03-30T03:02:52.093Z,1182.00
2023-03-30T03:03:52.120Z,1180.00
2023-03-30T03:04:51.156Z,1177.00
2023-03-30T03:05:51.177Z,1178.00
2023-03-30T03:06:52.220Z,1180.00
2023-03-30T03:07:52.276Z,1178.00
2023-03-30T03:08:52.326Z,1177.00
2023-03-30T03:09:51.350Z,1175.00
2023-03-30T03:10:52.386Z,1173.00
2023-03-30T03:11:51.476Z,1173.00
2023-03-30T03:12:51.480Z,1171.00
2023-03-30T03:13:52.536Z,1172.00
2023-03-30T03:14:52.592Z,1168.00
2023-03-30T03:15:52.622Z,1168.00
2023-03-30T03:16:52.836Z,1166.00
2023-03-30T03:17:52.749Z,1166.00
2023-03-30T03:18:52.878Z,1169.00
2023-03-30T03:19:52.814Z,1169.00
2023-03-30T03:20:52.842Z,1168.00
2023-03-30T03:21:52.882Z,1166.00
2023-03-30T03:22:52.936Z,1166.00
2023-03-30T03:23:52.970Z,1166.00
2023-03-30T03:24:52.025Z,1166.00
2023-03-30T03:25:53.039Z,1166.00
2023-03-30T03:26:52.075Z,1167.00
2023-03-30T03:27:53.151Z,1164.00
2023-03-30T03:28:53.212Z,1164.00
2023-03-30T03:29:53.209Z,1164.00
2023-03-30T03:30:53.349Z,1163.00
2023-03-30T03:31:53.291Z,1165.00
2023-03-30T03:32:53.409Z,1165.00
2023-03-30T03:33:53.420Z,1165.00
2023-03-30T03:34:53.419Z,1164.00
2023-03-30T03:35:52.483Z,1163.00
2023-03-30T03:36:53.511Z,1158.00
2023-03-30T03:37:53.541Z,1157.00
2023-03-30T03:38:52.583Z,1158.00
2023-03-30T03:39:53.669Z,1159.00
2023-03-30T03:40:53.658Z,1161.00
2023-03-30T03:41:52.754Z,1162.00
2023-03-30T03:42:53.758Z,1162.00
2023-03-30T03:43:53.795Z,1163.00
2023-03-30T03:44:53.870Z,1159.00
2023-03-30T03:45:53.889Z,1159.00
2023-03-30T03:46:54.027Z,1158.00
2023-03-30T03:47:54.080Z,1159.00
2023-03-30T03:48:54.012Z,1158.00
2023-03-30T03:49:54.073Z,1159.00
2023-03-30T03:50:54.200Z,1156.00
2023-03-30T03:51:54.181Z,1155.00
2023-03-30T03:52:54.224Z,1153.00
2023-03-30T03:53:54.261Z,1151.00
2023-03-30T03:54:53.310Z,1149.00
2023-03-30T03:55:54.385Z,1147.00
2023-03-30T03:56:54.469Z,1147.00
2023-03-30T03:57:54.459Z,1146.00
2023-03-30T03:58:54.470Z,1147.00
2023-03-30T03:59:54.515Z,1149.00
2023-03-30T04:00:54.582Z,1149.00
2023-03-30T04:01:54.647Z,1151.00
2023-03-30T04:02:53.711Z,1151.00
2023-03-30T04:03:53.684Z,1151.00
2023-03-30T04:04:54.783Z,1153.00
2023-03-30T04:05:53.787Z,1153.00
2023-03-30T04:06:54.808Z,1153.00
2023-03-30T04:07:54.853Z,1153.00
2023-03-30T04:08:54.993Z,1155.00
2023-03-30T04:09:53.957Z,1154.00
2023-03-30T04:10:55.014Z,1153.00
2023-03-30T04:11:55.043Z,1151.00
2023-03-30T04:12:55.136Z,1149.00
2023-03-30T04:13:55.138Z,1146.00
2023-03-30T04:14:54.166Z,1145.00
2023-03-30T04:15:55.214Z,1145.00
2023-03-30T04:16:55.246Z,1142.00
2023-03-30T04:17:54.348Z,1143.00
2023-03-30T04:18:55.321Z,1144.00
2023-03-30T04:19:55.371Z,1144.00
2023-03-30T04:20:55.432Z,1143.00
2023-03-30T04:21:55.476Z,1143.00
2023-03-30T04:22:55.492Z,1142.00
2023-03-30T04:23:55.543Z,1138.00
2023-03-30T04:24:55.582Z,1138.00
2023-03-30T04:25:55.645Z,1138.00
2023-03-30T04:26:54.681Z,1136.00
2023-03-30T04:27:55.755Z,1135.00
2023-03-30T04:28:55.779Z,1135.00
2023-03-30T04:29:55.811Z,1136.00
2023-03-30T04:30:54.850Z,1135.00
2023-03-30T04:31:55.905Z,1135.00
2023-03-30T04:32:55.967Z,1134.00
2023-03-30T04:33:54.975Z,1133.00
2023-03-30T04:34:55.064Z,1132.00
2023-03-30T04:35:56.123Z,1131.00
2023-03-30T04:36:56.095Z,1131.00
2023-03-30T04:37:56.135Z,1133.00
2023-03-30T04:38:55.286Z,1130.00
2023-03-30T04:39:56.242Z,1131.00
2023-03-30T04:40:56.293Z,1132.00
2023-03-30T04:41:56.333Z,1133.00
2023-03-30T04:42:56.372Z,1132.00
2023-03-30T04:43:56.437Z,1132.00
2023-03-30T04:44:56.462Z,1137.00
2023-03-30T04:45:56.547Z,1136.00
2023-03-30T04:46:56.537Z,1135.00
2023-03-30T04:47:56.655Z,1132.00
2023-03-30T04:48:55.636Z,1128.00
2023-03-30T04:49:56.688Z,1125.00
2023-03-30T04:50:56.721Z,1126.00
2023-03-30T04:51:56.773Z,1128.00
2023-03-30T04:52:56.799Z,1123.00
2023-03-30T04:53:56.843Z,1127.00
2023-03-30T04:54:56.912Z,1127.00
2023-03-30T04:55:55.913Z,1129.00
2023-03-30T04:56:57.001Z,1129.00
2023-03-30T04:57:56.998Z,1127.00
2023-03-30T04:58:57.039Z,1128.00
2023-03-30T04:59:56.200Z,1128.00
2023-03-30T05:00:57.134Z,1126.00
2023-03-30T05:01:57.204Z,1124.00
2023-03-30T05:02:57.295Z,1124.00
2023-03-30T05:03:57.246Z,1126.00
2023-03-30T05:04:57.332Z,1128.00
2023-03-30T05:05:57.364Z,1124.00
2023-03-30T05:06:57.455Z,1124.00
2023-03-30T05:07:57.415Z,1123.00
2023-03-30T05:08:57.464Z,1122.00
2023-03-30T05:09:57.630Z,1120.00
2023-03-30T05:10:57.625Z,1118.00
2023-03-30T05:11:57.673Z,1118.00
2023-03-30T05:12:57.765Z,1120.00
2023-03-30T05:13:57.786Z,1122.00
2023-03-30T05:14:57.791Z,1122.00
2023-03-30T05:15:57.867Z,1120.00
2023-03-30T05:16:57.896Z,1121.00
2023-03-30T05:20:56.994Z,1120.00
2023-03-30T05:21:58.027Z,1117.00
2023-03-30T05:22:58.076Z,1117.00
2023-03-30T05:23:58.113Z,1116.00
2023-03-30T05:24:58.147Z,1116.00
2023-03-30T05:25:58.292Z,1115.00
2023-03-30T05:30:57.461Z,1113.00
2023-03-30T05:31:57.511Z,1115.00
2023-03-30T05:32:58.552Z,1113.00
2023-03-30T05:33:58.546Z,1113.00
2023-03-30T05:34:58.610Z,1112.00
2023-03-30T05:35:58.673Z,1111.00
2023-03-30T05:36:58.668Z,1110.00
2023-03-30T05:37:58.733Z,1114.00
2023-03-30T05:38:58.797Z,1112.00
2023-03-30T05:39:58.819Z,1111.00
2023-03-30T05:40:58.928Z,1113.00
2023-03-30T05:41:57.949Z,1108.00
2023-03-30T05:42:58.951Z,1120.00
2023-03-30T05:43:59.035Z,1124.00
2023-03-30T05:44:59.019Z,1136.00
2023-03-30T05:45:59.125Z,1145.00
2023-03-30T05:47:58.197Z,1147.00
2023-03-30T05:48:58.328Z,1012.00
2023-03-30T05:49:59.162Z,981.00
2023-03-30T05:51:01.714Z,944.00
2023-03-30T05:53:58.177Z,862.00
2023-03-30T05:55:58.134Z,972.00
2023-03-30T05:56:59.190Z,1003.00
2023-03-30T06:00:58.108Z,1108.00
2023-03-30T06:01:59.162Z,1120.00
2023-03-30T06:02:59.189Z,1116.00
2023-03-30T06:06:58.056Z,1097.00
2023-03-30T06:07:59.049Z,1103.00
2023-03-30T06:10:58.091Z,1114.00
2023-03-30T06:11:59.067Z,1117.00
2023-03-30T06:15:59.610Z,1112.00
2023-03-30T06:16:59.007Z,1103.00
2023-03-30T06:17:59.052Z,1099.00
2023-03-30T06:18:59.046Z,1095.00
2023-03-30T06:21:57.972Z,1081.00
2023-03-30T06:23:57.945Z,1072.00
2023-03-30T06:24:58.943Z,1067.00
2023-03-30T06:29:57.889Z,1050.00
2023-03-30T06:30:58.884Z,1053.00
2023-03-30T06:31:58.952Z,1059.00
2023-03-30T06:32:57.933Z,1057.00
2023-03-30T06:33:58.979Z,1059.00
2023-03-30T06:37:57.828Z,1079.00
2023-03-30T06:38:58.880Z,1083.00
2023-03-30T06:40:57.829Z,1078.00
2023-03-30T06:41:58.851Z,1074.00
2023-03-30T06:45:57.825Z,1062.00
2023-03-30T06:46:58.815Z,1063.00
2023-03-30T06:48:57.767Z,1065.00
2023-03-30T06:49:58.979Z,1062.00
2023-03-30T06:54:57.727Z,1057.00
2023-03-30T06:55:57.726Z,1067.00
2023-03-30T06:56:59.215Z,1082.00
2023-03-30T06:59:57.719Z,1178.00
2023-03-30T07:00:59.827Z,1250.00
2023-03-30T07:04:57.698Z,1328.00
2023-03-30T07:05:58.633Z,1346.00
2023-03-30T07:06:58.645Z,1382.00
2023-03-30T07:07:58.752Z,1422.00
2023-03-30T07:12:57.582Z,1540.00
2023-03-30T07:13:57.576Z,1580.00
2023-03-30T07:17:57.655Z,1687.00
2023-03-30T07:18:57.639Z,1700.00
2023-03-30T07:20:57.667Z,1744.00
2023-03-30T07:21:58.679Z,1762.00
2023-03-30T07:22:58.786Z,1795.00
2023-03-30T07:26:57.884Z,1871.00
2023-03-30T07:27:58.960Z,1887.00
2023-03-30T07:30:04.536Z,2041.00
2023-03-30T07:30:59.076Z,2015.00
2023-03-30T07:32:58.801Z,2051.00
2023-03-30T07:33:59.007Z,2068.00
2023-03-30T07:35:58.093Z,2108.00
2023-03-30T07:36:58.965Z,2130.00
2023-03-30T07:40:57.991Z,2221.00
2023-03-30T07:41:58.072Z,2234.00
2023-03-30T07:42:58.108Z,2244.00
2023-03-30T07:43:58.145Z,2263.00
2023-03-30T07:44:59.205Z,2278.00
2023-03-30T07:45:59.342Z,2295.00
2023-03-30T07:47:00.215Z,2381.00
2023-03-30T07:47:59.361Z,2413.00
2023-03-30T07:51:58.687Z,2429.00
2023-03-30T07:52:58.528Z,2419.00
2023-03-30T07:54:58.524Z,2401.00
2023-03-30T07:55:59.581Z,2395.00
2023-03-30T07:57:58.551Z,2384.00
2023-03-30T07:59:01.603Z,2373.00
2023-03-30T08:01:58.545Z,2355.00
2023-03-30T08:02:59.730Z,2355.00
2023-03-30T08:04:58.565Z,2351.00
2023-03-30T08:05:59.494Z,2345.00
2023-03-30T08:10:58.458Z,2320.00
2023-03-30T08:11:59.517Z,2311.00
2023-03-30T08:13:58.440Z,2300.00
2023-03-30T08:14:59.455Z,2303.00
2023-03-30T08:16:58.420Z,2297.00
2023-03-30T08:17:58.515Z,2293.00
2023-03-30T08:18:59.414Z,2292.00
2023-03-30T08:20:58.396Z,2285.00
2023-03-30T08:21:59.397Z,2286.00
2023-03-30T08:29:58.340Z,2241.00
2023-03-30T08:30:59.309Z,2238.00
2023-03-30T08:31:59.351Z,2233.00
2023-03-30T08:32:59.354Z,2226.00
2023-03-30T08:34:58.289Z,2215.00
2023-03-30T08:35:59.339Z,2214.00
2023-03-30T08:36:59.275Z,2216.00
2023-03-30T08:37:59.265Z,2204.00
2023-03-30T08:41:58.257Z,2162.00
2023-03-30T08:42:59.380Z,2163.00
2023-03-30T08:43:59.296Z,2152.00
2023-03-30T08:44:59.303Z,2108.00
2023-03-30T08:45:59.381Z,1833.00
2023-03-30T08:46:59.406Z,1640.00
2023-03-30T08:47:59.453Z,1509.00
2023-03-30T08:48:59.485Z,1315.00
2023-03-30T08:49:59.526Z,1318.00
2023-03-30T08:50:59.586Z,1078.00
2023-03-30T08:52:58.620Z,1011.00
2023-03-30T08:53:59.601Z,959.00
2023-03-30T08:55:58.636Z,902.00
2023-03-30T08:56:59.745Z,926.00
2023-03-30T08:57:59.700Z,895.00
2023-03-30T08:58:58.743Z,915.00
2023-03-30T08:59:59.807Z,965.00
2023-03-30T09:00:59.876Z,982.00
2023-03-30T09:01:59.967Z,980.00
2023-03-30T09:04:58.979Z,1079.00
2023-03-30T09:05:59.982Z,1105.00
2023-03-30T09:07:00.040Z,1112.00
2023-03-30T09:08:00.160Z,1115.00
2023-03-30T09:09:00.163Z,1126.00
2023-03-30T09:11:59.139Z,1144.00
2023-03-30T09:13:00.143Z,1146.00
2023-03-30T09:14:00.143Z,1160.00
2023-03-30T09:15:00.176Z,1170.00
2023-03-30T09:15:59.282Z,1174.00
2023-03-30T09:17:59.229Z,1181.00
2023-03-30T09:19:00.247Z,1184.00
2023-03-30T09:19:59.265Z,1189.00
2023-03-30T09:21:00.285Z,1192.00
2023-03-30T09:21:59.306Z,1210.00
2023-03-30T09:23:00.356Z,1235.00
2023-03-30T09:26:59.410Z,1297.00
2023-03-30T09:28:00.509Z,1301.00
2023-03-30T09:29:00.442Z,1305.00
2023-03-30T09:30:00.483Z,1311.00
2023-03-30T09:31:00.499Z,1316.00
2023-03-30T09:32:00.548Z,1321.00
2023-03-30T09:37:59.622Z,1373.00
2023-03-30T09:39:00.676Z,1384.00
2023-03-30T09:40:00.668Z,1394.00
2023-03-30T09:40:59.702Z,1397.00
2023-03-30T09:42:00.833Z,1403.00
2023-03-30T09:42:59.822Z,1415.00
2023-03-30T09:43:59.887Z,1426.00
2023-03-30T09:45:00.947Z,1433.00
2023-03-30T09:46:01.020Z,1438.00
2023-03-30T09:47:00.811Z,1445.00
2023-03-30T09:48:01.194Z,1472.00
2023-03-30T09:49:01.284Z,1496.00
2023-03-30T09:51:00.180Z,1544.00
2023-03-30T09:52:01.225Z,1569.00
2023-03-30T09:53:01.211Z,1590.00
2023-03-30T09:54:01.227Z,1619.00
2023-03-30T09:57:00.303Z,1690.00
2023-03-30T09:58:01.301Z,1679.00
2023-03-30T09:59:01.331Z,1599.00
2023-03-30T10:02:00.445Z,1543.00
2023-03-30T10:03:00.359Z,1527.00
2023-03-30T10:04:01.506Z,1526.00
2023-03-30T10:05:01.469Z,1531.00
2023-03-30T10:08:00.330Z,1567.00
2023-03-30T10:09:01.372Z,1582.00
2023-03-30T10:11:00.388Z,1689.00
2023-03-30T10:12:01.414Z,1725.00
2023-03-30T10:13:01.418Z,1562.00
2023-03-30T10:14:01.440Z,1581.00
2023-03-30T10:15:01.515Z,1656.00
2023-03-30T10:16:00.560Z,1651.00
2023-03-30T10:17:00.582Z,1652.00
2023-03-30T10:18:01.646Z,1647.00
2023-03-30T10:22:00.851Z,1640.00
2023-03-30T10:23:01.890Z,1642.00
2023-03-30T10:24:01.966Z,1639.00
2023-03-30T10:25:02.009Z,1708.00
2023-03-30T10:26:02.384Z,1675.00
2023-03-30T10:27:02.096Z,1686.00
2023-03-30T10:28:02.125Z,1711.00
2023-03-30T10:29:01.172Z,1756.00
2023-03-30T10:30:02.242Z,1775.00
2023-03-30T10:31:02.302Z,1777.00
2023-03-30T10:32:02.561Z,1775.00
2023-03-30T10:33:02.520Z,1819.00
2023-03-30T10:34:02.507Z,1827.00
2023-03-30T10:35:02.500Z,1823.00
2023-03-30T10:36:03.005Z,1830.00
2023-03-30T10:37:02.625Z,1856.00
2023-03-30T10:38:02.693Z,1875.00
2023-03-30T10:39:02.741Z,1897.00
2023-03-30T10:40:02.806Z,1913.00
2023-03-30T10:41:02.849Z,1933.00
2023-03-30T10:42:02.945Z,1949.00
2023-03-30T10:43:02.942Z,2018.00
2023-03-30T10:44:02.980Z,2064.00
2023-03-30T10:45:03.039Z,2068.00
2023-03-30T10:46:18.218Z,2070.00
2023-03-30T10:47:03.134Z,2071.00
2023-03-30T10:49:02.082Z,2077.00
2023-03-30T10:50:03.083Z,2115.00
2023-03-30T10:52:02.091Z,2110.00
2023-03-30T10:53:03.106Z,2117.00
2023-03-30T10:55:02.012Z,2121.00
2023-03-30T10:56:02.191Z,2123.00
2023-03-30T10:57:03.098Z,2127.00
2023-03-30T11:01:01.998Z,2130.00
2023-03-30T11:02:02.981Z,2126.00
2023-03-30T11:03:02.028Z,2123.00
2023-03-30T11:05:01.988Z,2123.00
2023-03-30T11:06:03.189Z,2121.00
2023-03-30T11:09:01.916Z,2119.00
2023-03-30T11:10:02.908Z,2119.00
2023-03-30T11:11:02.886Z,2119.00
2023-03-30T11:13:01.917Z,2115.00
2023-03-30T11:14:03.259Z,2111.00
2023-03-30T11:17:01.890Z,2096.00
2023-03-30T11:18:02.849Z,2095.00
2023-03-30T11:19:02.936Z,2095.00
2023-03-30T11:20:02.824Z,2095.00
2023-03-30T11:24:01.830Z,2081.00
2023-03-30T11:25:02.776Z,2077.00
2023-03-30T11:27:01.760Z,2069.00
2023-03-30T11:28:02.776Z,2060.00
2023-03-30T11:29:01.755Z,2065.00
2023-03-30T11:30:02.794Z,2070.00
2023-03-30T11:31:02.757Z,2068.00
2023-03-30T11:32:02.797Z,2062.00
2023-03-30T11:34:01.861Z,2053.00
2023-03-30T11:35:02.712Z,2051.00
2023-03-30T11:40:01.802Z,2036.00
2023-03-30T11:41:02.727Z,2031.00
2023-03-30T11:42:01.793Z,2026.00
2023-03-30T11:43:02.827Z,2020.00
2023-03-30T11:44:02.905Z,2013.00
2023-03-30T11:45:02.959Z,2009.00
2023-03-30T11:46:04.097Z,2005.00
2023-03-30T11:47:03.017Z,2001.00
2023-03-30T11:48:03.084Z,1999.00
2023-03-30T11:49:03.144Z,1997.00
2023-03-30T11:50:03.219Z,1996.00
2023-03-30T11:53:02.294Z,1993.00
2023-03-30T11:54:03.361Z,1996.00
2023-03-30T11:55:04.317Z,1992.00
2023-03-30T11:56:03.778Z,1988.00
2023-03-30T11:57:03.505Z,1990.00
2023-03-30T11:58:05.591Z,1988.00
2023-03-30T11:59:03.565Z,1991.00
2023-03-30T12:01:02.948Z,1991.00
2023-03-30T12:02:03.497Z,1988.00
2023-03-30T12:06:02.765Z,1982.00
2023-03-30T12:07:03.556Z,1978.00
2023-03-30T12:08:03.487Z,1979.00
2023-03-30T12:09:03.448Z,1979.00
2023-03-30T12:10:05.974Z,1976.00
2023-03-30T12:11:03.609Z,1976.00
2023-03-30T12:12:03.516Z,1976.00
2023-03-30T12:16:02.605Z,1972.00
2023-03-30T12:17:03.482Z,1965.00
2023-03-30T12:18:03.504Z,1962.00
2023-03-30T12:19:03.511Z,1956.00
2023-03-30T12:20:02.569Z,1953.00
2023-03-30T12:21:03.598Z,1953.00
2023-03-30T12:24:02.578Z,1950.00
2023-03-30T12:25:03.583Z,1952.00
2023-03-30T12:26:03.969Z,1956.00
2023-03-30T12:27:06.432Z,1959.00
2023-03-30T12:28:03.681Z,1956.00
2023-03-30T12:29:26.316Z,1951.00
2023-03-30T12:30:03.810Z,1948.00
2023-03-30T12:33:02.582Z,1951.00
2023-03-30T12:34:03.538Z,1955.00
2023-03-30T12:35:03.529Z,1952.00
2023-03-30T12:36:02.821Z,1946.00
2023-03-30T12:37:03.540Z,1943.00
2023-03-30T12:38:02.501Z,1944.00
2023-03-30T12:39:03.500Z,1943.00
2023-03-30T12:41:02.493Z,1936.00
2023-03-30T12:42:02.467Z,1926.00
2023-03-30T12:43:02.458Z,1924.00
2023-03-30T12:44:03.506Z,1924.00
2023-03-30T12:46:02.791Z,1923.00
2023-03-30T12:47:06.231Z,1915.00
2023-03-30T12:48:03.466Z,1913.00
2023-03-30T12:49:04.336Z,1910.00
2023-03-30T12:52:02.469Z,1908.00
2023-03-30T12:53:04.172Z,1906.00
2023-03-30T12:54:03.396Z,1910.00
2023-03-30T12:56:02.441Z,1915.00
2023-03-30T12:57:03.383Z,1911.00
2023-03-30T12:58:03.347Z,1906.00
2023-03-30T12:59:03.372Z,1909.00
2023-03-30T13:00:03.392Z,1913.00
2023-03-30T13:01:03.447Z,1916.00
2023-03-30T13:03:02.372Z,1907.00
2023-03-30T13:05:02.296Z,1893.00
2023-03-30T13:06:03.606Z,1892.00
2023-03-30T13:07:03.365Z,1892.00
2023-03-30T13:08:03.279Z,1888.00
2023-03-30T13:09:02.293Z,1886.00
2023-03-30T13:10:05.666Z,1886.00
2023-03-30T13:12:02.247Z,1886.00
2023-03-30T13:13:03.289Z,1876.00
2023-03-30T13:16:02.566Z,1863.00
2023-03-30T13:17:02.263Z,1867.00
2023-03-30T13:18:02.325Z,1868.00
2023-03-30T13:19:03.193Z,1873.00
2023-03-30T13:20:03.199Z,1867.00
2023-03-30T13:22:02.179Z,1877.00
2023-03-30T13:23:03.146Z,1880.00
2023-03-30T13:24:03.148Z,1887.00
2023-03-30T13:25:03.158Z,1889.00
2023-03-30T13:26:03.411Z,1892.00
2023-03-30T13:27:03.134Z,1891.00
2023-03-30T13:30:02.152Z,1898.00
2023-03-30T13:32:02.113Z,1893.00
2023-03-30T13:33:03.086Z,1892.00
2023-03-30T13:34:02.105Z,1891.00
2023-03-30T13:35:07.574Z,1887.00
2023-03-30T13:36:03.308Z,1891.00
2023-03-30T13:38:02.063Z,1882.00
2023-03-30T13:39:55.970Z,1834.00
2023-03-30T13:41:04.039Z,1843.00
2023-03-30T13:41:56.958Z,1848.00
2023-03-30T13:42:56.945Z,1850.00
2023-03-30T13:43:56.955Z,1850.00
2023-03-30T13:44:57.512Z,1849.00
2023-03-30T13:46:00.547Z,1851.00
2023-03-30T13:46:56.949Z,1850.00
2023-03-30T13:47:57.564Z,1850.00
2023-03-30T13:48:55.916Z,1846.00
2023-03-30T13:49:55.902Z,1846.00
2023-03-30T13:50:56.900Z,1845.00
2023-03-30T13:51:55.870Z,1849.00
2023-03-30T13:52:56.865Z,1848.00
2023-03-30T13:53:56.872Z,1845.00
2023-03-30T13:54:56.893Z,1843.00
2023-03-30T13:55:56.856Z,1839.00
2023-03-30T13:56:56.902Z,1839.00
2023-03-30T13:57:56.841Z,1841.00
2023-03-30T13:58:56.825Z,1843.00
2023-03-30T13:59:56.808Z,1841.00
2023-03-30T14:00:56.833Z,1840.00
2023-03-30T14:01:56.920Z,1841.00
2023-03-30T14:02:56.824Z,1838.00
2023-03-30T14:03:56.884Z,1835.00
2023-03-30T14:04:56.787Z,1830.00
2023-03-30T14:05:56.776Z,1825.00
2023-03-30T14:06:56.758Z,1827.00
2023-03-30T14:07:56.753Z,1827.00
2023-03-30T14:08:56.769Z,1825.00
2023-03-30T14:09:55.743Z,1821.00
2023-03-30T14:10:56.754Z,1824.00
2023-03-30T14:11:56.792Z,1824.00
2023-03-30T14:12:56.727Z,1822.00
2023-03-30T14:13:55.709Z,1821.00
2023-03-30T14:14:56.721Z,1819.00
2023-03-30T14:15:56.745Z,1818.00
2023-03-30T14:16:56.702Z,1818.00
2023-03-30T14:17:56.744Z,1817.00
2023-03-30T14:18:56.695Z,1813.00
2023-03-30T14:19:56.786Z,1811.00
2023-03-30T14:20:55.676Z,1813.00
2023-03-30T14:21:56.758Z,1808.00
2023-03-30T14:22:56.664Z,1804.00
2023-03-30T14:23:56.664Z,1803.00
2023-03-30T14:24:56.653Z,1802.00
2023-03-30T14:25:55.662Z,1802.00
2023-03-30T14:26:55.809Z,1803.00
2023-03-30T14:27:56.726Z,1799.00
2023-03-30T14:28:56.783Z,1797.00
2023-03-30T14:29:56.785Z,1799.00
2023-03-30T14:30:56.845Z,1802.00
2023-03-30T14:32:07.385Z,1803.00
2023-03-30T14:32:56.885Z,1800.00
2023-03-30T14:33:55.853Z,1797.00
2023-03-30T14:34:56.836Z,1797.00
2023-03-30T14:35:56.886Z,1794.00
2023-03-30T14:36:55.849Z,1797.00
2023-03-30T14:37:59.159Z,1795.00
2023-03-30T14:38:56.808Z,1794.00
2023-03-30T14:39:55.854Z,1793.00
2023-03-30T14:40:56.814Z,1795.00
2023-03-30T14:41:56.792Z,1794.00
2023-03-30T14:42:56.779Z,1796.00
2023-03-30T14:43:56.779Z,1796.00
2023-03-30T14:44:55.768Z,1794.00
2023-03-30T14:45:56.814Z,1793.00
2023-03-30T14:46:56.755Z,1789.00
2023-03-30T14:47:55.765Z,1784.00
2023-03-30T14:48:56.732Z,1786.00
2023-03-30T14:49:56.757Z,1788.00
2023-03-30T14:50:55.736Z,1785.00
2023-03-30T14:51:56.739Z,1784.00